KMFD/MFD METAR and TAF weather

Enter ICAO airport designator
Station Type Date Time Source
KMFD METAR 2019/10/23 11:52 UTC NOAA

KMFD 231152Z 22010KT 10SM CLR 06/01 A2996 RMK AO2 SLP149 T00610011 10094 20061 51016


Station Type Date Time Source
KMFD Decoded METAR 2019/10/23 11:52 UTC NOAA

LAHM MUNICIPAL AIRPORT, OH, United States (KMFD) 40-49N 082-31W 395M
Oct 23, 2019 - 07:52 AM EDT / 2019.10.23 1152 UTC
Wind: from the SW (220 degrees) at 12 MPH (10 KT):0
Visibility: 10 mile(s):0
Sky conditions: clear
Temperature: 43.0 F (6.1 C)
Dew Point: 34.0 F (1.1 C)
Relative Humidity: 70%
Pressure (altimeter): 29.96 in. Hg (1014 hPa)
Pressure tendency: 0.05 inches (1.6 hPa) higher than three hours ago
ob: KMFD 231152Z 22010KT 10SM CLR 06/01 A2996 RMK AO2 SLP149 T00610011 10094 20061 51016
cycle: 12

Station Type Date Time Source
KMFD TAF 2019/10/23 12:33 UTC NOAA

TAF KMFD 231130Z 2312/2412 22010KT P6SM SKC
FM231400 24015G22KT P6SM FEW090
FM232200 20013KT P6SM BKN090 BKN170 WS020/23045KT

Example: see airport list